Aviation Digital Data Service (ADDS)

Output produced by METARs form (1944 UTC 18 June 2019)
found at http://www.aviationweather.gov/metar/data/
 
TAF VRMG 181700Z 1818/1924 35004KT 9999 SCT018TCU 
     TEMPO 1818/1824 4000 TSRA FEW017CB
       
TAF VRMH 181700Z 1818/1924 30009KT 9999 FEW018TCU 
     TEMPO 1818/1824 5000 -TSRA FEW018CB